Time;durP1;ratioP1;P1;durP2;ratioP2;P2;SDS_P1;SDS_P2;PMS_P1;PMS_P2;Temp;Humidity;BMP_temperature;BMP_pressure;BME280_temperature;BME280_humidity;BME280_pressure;Samples;Min_cycle;Max_cycle;Signal;HPM_P1;HPM_P2
2022/01/21 00:01:26;;;;;;;21.63;6.13;;;;;;;0.11;95.26;103371.28;4983345;28;20105;-60
2022/01/21 00:03:52;;;;;;;17.90;5.60;;;;;;;0.14;95.19;103371.94;4983564;28;20125;-60
2022/01/21 00:06:18;;;;;;;19.52;5.30;;;;;;;0.18;95.06;103380.72;4983306;28;20505;-60
2022/01/21 00:08:45;;;;;;;20.15;6.15;;;;;;;0.22;95.22;103372.31;4980295;28;20053;-60
2022/01/21 00:11:13;;;;;;;21.17;6.13;;;;;;;0.27;95.22;103369.31;4982793;28;20482;-60
2022/01/21 00:13:38;;;;;;;18.80;5.40;;;;;;;0.31;94.95;103364.56;4966793;28;20110;-60
2022/01/21 00:16:07;;;;;;;17.67;4.93;;;;;;;0.32;95.23;103361.75;4983488;28;20042;-60
2022/01/21 00:18:35;;;;;;;16.75;6.18;;;;;;;0.34;94.90;103369.75;4981850;28;20027;-61
2022/01/21 00:31:56;;;;;;;18.10;5.18;;;;;;;0.34;94.81;103361.66;4983719;28;20037;-60
2022/01/21 00:34:22;;;;;;;19.83;5.03;;;;;;;0.28;94.87;103359.38;4983122;28;20038;-60
2022/01/21 00:36:47;;;;;;;18.42;4.40;;;;;;;0.23;95.10;103355.13;4983460;28;20038;-60
2022/01/21 00:39:13;;;;;;;15.48;4.85;;;;;;;0.17;95.01;103362.78;4981252;28;20022;-59
2022/01/21 00:41:53;;;;;;;19.35;4.97;;;;;;;0.09;94.90;103360.56;4982448;28;20038;-60
2022/01/21 00:44:19;;;;;;;19.83;5.28;;;;;;;0.06;95.04;103362.63;4983186;28;20353;-60
2022/01/21 00:46:44;;;;;;;16.83;5.85;;;;;;;-0.01;95.24;103354.03;4985725;28;20117;-60
2022/01/21 00:49:09;;;;;;;23.60;5.43;;;;;;;-0.07;95.41;103362.53;4983956;28;20033;-60
2022/01/21 00:51:35;;;;;;;22.40;5.20;;;;;;;-0.13;95.50;103363.81;4986680;28;20061;-60
2022/01/21 00:54:00;;;;;;;21.30;5.25;;;;;;;-0.18;95.72;103362.38;4986157;28;20355;-60
2022/01/21 00:56:25;;;;;;;16.80;4.75;;;;;;;-0.24;95.86;103363.63;4985809;28;20065;-60
2022/01/21 00:58:50;;;;;;;19.13;4.70;;;;;;;-0.27;95.81;103370.09;4984400;28;20044;-60
2022/01/21 01:01:16;;;;;;;18.35;4.93;;;;;;;-0.31;96.07;103378.47;4986424;28;20509;-60
2022/01/21 01:03:41;;;;;;;17.20;4.93;;;;;;;-0.33;95.99;103375.88;4985826;28;20112;-60
2022/01/21 01:06:06;;;;;;;17.00;4.85;;;;;;;-0.34;96.60;103378.69;4986068;28;20494;-60
2022/01/21 01:08:32;;;;;;;21.45;5.97;;;;;;;-0.38;96.69;103377.13;4983865;28;20039;-60
2022/01/21 01:11:17;;;;;;;19.25;4.50;;;;;;;-0.38;96.69;103371.75;4986225;28;20045;-60
2022/01/21 01:21:45;;;;;;;16.90;4.22;;;;;;;-0.37;96.84;103370.78;4985780;28;20411;-60
2022/01/21 01:29:23;;;;;;;25.42;5.65;;;;;;;-0.32;97.29;103360.53;4985448;28;20149;-60
2022/01/21 01:31:49;;;;;;;15.85;4.10;;;;;;;-0.31;97.49;103356.88;4986678;28;20451;-60
2022/01/21 01:34:15;;;;;;;14.77;4.22;;;;;;;-0.29;97.50;103347.72;4984687;28;20149;-60
2022/01/21 01:36:43;;;;;;;17.33;4.15;;;;;;;-0.28;97.30;103352.16;4986080;28;20045;-60
2022/01/21 01:41:57;;;;;;;15.95;4.63;;;;;;;-0.30;97.29;103347.81;4985817;28;20022;-60
2022/01/21 01:49:50;;;;;;;19.48;5.40;;;;;;;-0.38;97.69;103351.00;4975985;28;20133;-60
2022/01/21 01:52:17;;;;;;;15.25;4.50;;;;;;;-0.38;97.67;103348.31;4983858;28;20441;-60
2022/01/21 01:54:55;;;;;;;20.75;4.15;;;;;;;-0.40;97.95;103358.34;4985844;28;20023;-60
2022/01/21 01:57:21;;;;;;;17.63;4.60;;;;;;;-0.40;98.01;103350.25;4984465;28;20053;-60
2022/01/21 01:59:46;;;;;;;16.15;4.50;;;;;;;-0.41;98.00;103344.91;4985126;28;20724;-58
2022/01/21 02:02:15;;;;;;;21.75;4.50;;;;;;;-0.39;98.48;103343.00;4985266;28;20070;-60
2022/01/21 02:04:40;;;;;;;;;;;;;;;-0.36;98.09;103342.78;4984844;28;20030;-60
2022/01/21 02:07:06;;;;;;;17.65;3.63;;;;;;;-0.37;97.98;103349.16;4984464;28;19917;-60
2022/01/21 02:09:33;;;;;;;15.63;4.07;;;;;;;-0.40;97.81;103352.09;4983702;28;20053;-60
2022/01/21 02:11:58;;;;;;;12.57;4.57;;;;;;;-0.42;98.11;103352.16;4984397;28;20510;-60
2022/01/21 02:14:36;;;;;;;15.35;3.90;;;;;;;-0.43;97.90;103363.94;4984096;28;20109;-60
2022/01/21 02:22:16;;;;;;;11.95;3.60;;;;;;;-0.51;97.77;103355.44;4983689;28;20410;-59
2022/01/21 02:24:52;;;;;;;15.57;4.28;;;;;;;-0.51;97.97;103350.03;4985272;28;20049;-60
2022/01/21 02:27:17;;;;;;;15.75;3.67;;;;;;;-0.55;98.20;103343.97;4984131;28;20054;-60
2022/01/21 02:29:47;;;;;;;17.75;3.70;;;;;;;-0.55;98.57;103348.53;4981491;28;20076;-60
2022/01/21 02:32:13;;;;;;;12.15;3.60;;;;;;;-0.55;98.25;103348.53;4984099;28;20030;-60
2022/01/21 02:34:39;;;;;;;14.32;3.20;;;;;;;-0.56;98.30;103339.56;4985106;28;20037;-61
2022/01/21 02:37:05;;;;;;;15.80;3.08;;;;;;;-0.55;98.55;103337.72;4983770;28;20026;-61
2022/01/21 02:39:30;;;;;;;18.20;4.80;;;;;;;-0.54;99.04;103334.06;4984380;28;20038;-60
2022/01/21 02:41:56;;;;;;;16.23;3.50;;;;;;;-0.53;99.08;103341.19;4984554;28;20440;-60
2022/01/21 02:44:22;;;;;;;14.45;3.78;;;;;;;-0.50;99.32;103337.44;4984522;28;20141;-60
2022/01/21 02:46:54;;;;;;;16.25;3.28;;;;;;;-0.52;99.10;103343.78;4984437;28;20022;-60
2022/01/21 02:49:19;;;;;;;15.23;3.63;;;;;;;-0.53;99.16;103344.75;4983244;28;20030;-60
2022/01/21 02:51:45;;;;;;;14.70;3.15;;;;;;;-0.54;99.06;103345.72;4983295;28;20033;-60
2022/01/21 02:54:10;;;;;;;11.63;3.10;;;;;;;-0.56;98.85;103354.84;4984594;28;20409;-60
2022/01/21 02:56:37;;;;;;;13.02;4.05;;;;;;;-0.60;98.67;103354.19;4984360;28;20069;-60
2022/01/21 03:01:31;;;;;;;8.65;3.00;;;;;;;-0.67;98.54;103357.38;4990836;23;20453;-60
2022/01/21 03:03:57;;;;;;;15.73;3.97;;;;;;;-0.68;98.93;103355.63;4984642;28;20109;-61
2022/01/21 03:06:23;;;;;;;12.68;3.47;;;;;;;-0.69;98.92;103357.47;4983900;28;20105;-60
2022/01/21 03:08:50;;;;;;;13.38;3.13;;;;;;;-0.66;99.51;103349.19;4983150;28;20023;-60
2022/01/21 03:11:16;;;;;;;14.88;3.97;;;;;;;-0.58;99.66;103362.19;4982546;28;20025;-60
2022/01/21 03:13:43;;;;;;;20.85;3.78;;;;;;;-0.56;99.53;103355.75;4984265;28;20042;-60
2022/01/21 03:16:08;;;;;;;15.23;4.07;;;;;;;-0.49;100.00;103358.06;4984389;28;20022;-61
2022/01/21 03:18:33;;;;;;;15.98;3.65;;;;;;;-0.46;99.92;103353.31;4974892;28;20366;-61
2022/01/21 03:20:59;;;;;;;14.93;3.40;;;;;;;-0.44;99.96;103361.34;4965414;28;20033;-60
2022/01/21 03:23:27;;;;;;;15.07;3.65;;;;;;;-0.43;100.00;103357.66;4980365;28;20026;-60
2022/01/21 03:25:52;;;;;;;14.52;4.07;;;;;;;-0.44;99.85;103355.94;4983513;28;20042;-60
2022/01/21 03:28:17;;;;;;;17.98;3.47;;;;;;;-0.41;99.67;103361.13;4983225;28;20606;-61
2022/01/21 03:30:43;;;;;;;15.50;3.40;;;;;;;-0.44;100.00;103366.72;4984265;28;20057;-60
2022/01/21 03:33:08;;;;;;;12.93;3.35;;;;;;;-0.41;99.80;103371.91;4983555;28;20660;-58
2022/01/21 03:35:34;;;;;;;19.10;4.82;;;;;;;-0.39;100.00;103370.88;4984351;28;20030;-59
2022/01/21 03:37:59;;;;;;;16.83;3.50;;;;;;;-0.37;100.00;103374.34;4982045;28;20030;-58
2022/01/21 03:40:25;;;;;;;16.20;3.97;;;;;;;-0.36;100.00;103375.19;4983332;28;20030;-59
2022/01/21 03:42:50;;;;;;;17.17;3.58;;;;;;;-0.37;100.00;103373.47;4983881;28;20037;-58
2022/01/21 03:45:16;;;;;;;13.40;3.20;;;;;;;-0.38;100.00;103366.34;4984071;28;20264;-58
2022/01/21 03:47:42;;;;;;;14.27;3.92;;;;;;;-0.38;100.00;103371.75;4981725;28;20031;-58
2022/01/21 03:50:21;;;;;;;17.55;3.40;;;;;;;-0.39;100.00;103375.41;4983372;28;20053;-58
2022/01/21 03:52:47;;;;;;;13.18;3.20;;;;;;;-0.39;100.00;103372.72;4982916;28;20034;-58
2022/01/21 03:55:12;;;;;;;16.25;3.45;;;;;;;-0.38;100.00;103369.91;4983964;28;21173;-58
2022/01/21 03:57:38;;;;;;;14.98;3.05;;;;;;;-0.37;100.00;103376.16;4983322;28;20038;-59
2022/01/21 04:00:06;;;;;;;17.52;3.72;;;;;;;-0.36;100.00;103372.50;4983677;28;20189;-59
2022/01/21 04:02:31;;;;;;;;;;;;;;;-0.34;100.00;103378.69;4984073;28;20865;-59
2022/01/21 04:04:56;;;;;;;17.48;3.58;;;;;;;-0.37;100.00;103373.47;4984603;28;19902;-58
2022/01/21 04:07:22;;;;;;;14.05;3.10;;;;;;;-0.40;100.00;103368.28;4982634;28;20092;-58
2022/01/21 04:09:47;;;;;;;16.17;3.85;;;;;;;-0.42;100.00;103370.19;4982243;28;20089;-58
2022/01/21 04:12:12;;;;;;;13.18;2.90;;;;;;;-0.43;100.00;103368.47;4983284;28;20038;-58
2022/01/21 04:14:38;;;;;;;10.55;3.03;;;;;;;-0.46;100.00;103366.81;4984112;28;20442;-58
2022/01/21 04:17:03;;;;;;;15.15;3.85;;;;;;;-0.47;100.00;103370.47;4983063;28;20050;-59
2022/01/21 04:19:29;;;;;;;19.23;3.17;;;;;;;-0.48;100.00;103366.06;4982264;28;20037;-58
2022/01/21 04:21:54;;;;;;;17.00;3.40;;;;;;;-0.47;100.00;103358.81;4985191;28;20040;-58
2022/01/21 04:24:19;;;;;;;12.32;3.10;;;;;;;-0.49;100.00;103361.63;4987015;28;20050;-59
2022/01/21 04:26:45;;;;;;;13.98;3.30;;;;;;;-0.52;100.00;103368.06;4987161;28;20765;-58
2022/01/21 04:29:10;;;;;;;15.18;2.90;;;;;;;-0.52;100.00;103359.97;4986716;28;20030;-58
2022/01/21 04:31:35;;;;;;;10.77;3.00;;;;;;;-0.53;100.00;103369.03;4986978;28;20389;-59
2022/01/21 04:34:00;;;;;;;17.35;4.00;;;;;;;-0.54;100.00;103371.84;4985778;28;20507;-58
2022/01/21 04:36:26;;;;;;;15.32;3.53;;;;;;;-0.53;100.00;103376.28;4986108;28;20112;-58
2022/01/21 04:38:54;;;;;;;15.73;3.40;;;;;;;-0.61;100.00;103360.56;4985916;28;20034;-59
2022/01/21 04:41:39;;;;;;;17.90;3.65;;;;;;;-0.57;100.00;103366.63;4986454;28;20022;-58
2022/01/21 04:49:32;;;;;;;12.73;3.42;;;;;;;-0.63;100.00;103370.56;4986260;28;20112;-59
2022/01/21 04:52:03;;;;;;;16.77;3.13;;;;;;;-0.63;100.00;103370.56;4986127;28;20392;-58
2022/01/21 04:54:30;;;;;;;9.68;3.30;;;;;;;-0.61;100.00;103370.47;4986760;28;20021;-58
2022/01/21 04:56:56;;;;;;;13.90;3.47;;;;;;;-0.63;100.00;103362.47;4986270;28;20030;-58
2022/01/21 04:59:21;;;;;;;18.27;3.70;;;;;;;-0.60;100.00;103361.44;4986591;28;20056;-58
2022/01/21 05:01:47;;;;;;;14.60;4.30;;;;;;;-0.57;100.00;103354.00;4978723;28;20041;-58
2022/01/21 05:04:12;;;;;;;13.80;2.85;;;;;;;-0.57;100.00;103351.28;4979276;28;20026;-59
2022/01/21 05:06:37;;;;;;;11.88;3.75;;;;;;;-0.55;100.00;103343.97;4985810;28;20499;-58
2022/01/21 05:09:04;;;;;;;12.63;2.90;;;;;;;-0.55;100.00;103354.78;4986879;28;20109;-59
2022/01/21 05:11:30;;;;;;;16.05;3.47;;;;;;;-0.56;100.00;103350.34;4984964;28;20038;-58
2022/01/21 05:14:10;;;;;;;16.42;2.85;;;;;;;-0.56;100.00;103353.06;4985737;28;20510;-58
2022/01/21 05:16:38;;;;;;;11.65;2.80;;;;;;;-0.55;100.00;103359.31;4986723;28;20033;-59
2022/01/21 05:19:14;;;;;;;11.80;3.60;;;;;;;-0.52;100.00;103357.25;4986030;28;20050;-59
2022/01/21 05:21:40;;;;;;;11.70;3.25;;;;;;;-0.50;100.00;103357.19;4984906;28;20143;-58
2022/01/21 05:24:06;;;;;;;13.15;3.08;;;;;;;-0.47;100.00;103358.81;4986138;28;20034;-59
2022/01/21 05:26:36;;;;;;;12.23;3.17;;;;;;;-0.44;100.00;103350.53;4985939;28;20454;-59
2022/01/21 05:29:06;;;;;;;11.38;3.75;;;;;;;-0.43;100.00;103355.81;4986009;28;20026;-59
2022/01/21 05:31:31;;;;;;;15.65;3.33;;;;;;;-0.43;100.00;103358.53;4984186;28;20041;-59
2022/01/21 05:33:57;;;;;;;11.18;2.85;;;;;;;-0.44;100.00;103364.03;4986321;28;20488;-59
2022/01/21 05:36:22;;;;;;;15.45;4.00;;;;;;;-0.44;100.00;103364.03;4983983;28;20069;-59
2022/01/21 05:38:47;;;;;;;13.68;3.30;;;;;;;-0.46;100.00;103363.25;4986305;28;20022;-58
2022/01/21 05:41:13;;;;;;;13.40;3.80;;;;;;;-0.47;100.00;103361.50;4985387;28;20054;-59
2022/01/21 05:43:45;;;;;;;10.93;2.90;;;;;;;-0.48;100.00;103359.78;4984818;28;20045;-59
2022/01/21 05:49:08;;;;;;;13.60;3.35;;;;;;;-0.51;100.00;103358.13;4954260;28;20182;-59
2022/01/21 05:51:33;;;;;;;12.38;3.00;;;;;;;-0.51;100.00;103368.94;4979468;28;20841;-59
2022/01/21 05:53:58;;;;;;;13.75;4.30;;;;;;;-0.49;100.00;103371.56;4985358;28;20030;-58
2022/01/21 05:56:25;;;;;;;14.18;3.60;;;;;;;-0.49;100.00;103366.16;4984737;28;20037;-58
2022/01/21 05:58:51;;;;;;;12.68;4.35;;;;;;;-0.48;100.00;103367.88;4985547;28;20030;-58
2022/01/21 06:01:16;;;;;;;8.48;3.15;;;;;;;-0.47;100.00;103372.31;4984431;28;20046;-58
2022/01/21 06:03:42;;;;;;;15.27;3.95;;;;;;;-0.50;100.00;103375.22;4985760;28;20031;-58
2022/01/21 06:06:09;;;;;;;16.65;3.90;;;;;;;-0.53;100.00;103373.56;4983929;28;20433;-59
2022/01/21 06:08:34;;;;;;;14.07;3.78;;;;;;;-0.53;100.00;103374.44;4985184;28;20233;-59
2022/01/21 06:10:59;;;;;;;12.65;3.58;;;;;;;-0.54;100.00;103378.09;4985793;28;20338;-58
2022/01/21 06:13:25;;;;;;;14.60;3.78;;;;;;;-0.53;100.00;103376.28;4980705;28;20057;-58
2022/01/21 06:15:50;;;;;;;13.00;3.45;;;;;;;-0.54;100.00;103379.94;4985292;28;20026;-58
2022/01/21 06:18:15;;;;;;;10.70;2.90;;;;;;;-0.53;100.00;103389.75;4985080;28;20049;-58
2022/01/21 06:20:41;;;;;;;12.60;3.45;;;;;;;-0.55;100.00;103384.47;4985094;28;20037;-59
2022/01/21 06:23:06;;;;;;;12.77;3.30;;;;;;;-0.53;100.00;103390.63;4982796;28;20030;-59
2022/01/21 06:25:32;;;;;;;9.45;3.10;;;;;;;-0.54;100.00;103393.44;4984067;28;20069;-59
2022/01/21 06:27:57;;;;;;;13.25;3.15;;;;;;;-0.49;100.00;103393.16;4985070;28;20030;-58
2022/01/21 06:30:22;;;;;;;13.07;3.35;;;;;;;-0.44;100.00;103404.53;4973515;28;20092;-58
2022/01/21 06:32:48;;;;;;;14.05;3.47;;;;;;;-0.38;100.00;103404.13;4965671;28;20031;-59
2022/01/21 06:35:13;;;;;;;12.13;3.30;;;;;;;-0.28;100.00;103402.59;4977463;28;20027;-58
2022/01/21 06:37:39;;;;;;;13.50;4.25;;;;;;;-0.22;100.00;103415.69;4983986;28;20026;-58
2022/01/21 06:40:07;;;;;;;14.25;4.57;;;;;;;-0.15;100.00;103422.47;4982875;28;20022;-59
2022/01/21 06:42:33;;;;;;;15.63;5.13;;;;;;;-0.07;100.00;103420.13;4982092;28;20027;-59
2022/01/21 06:45:00;;;;;;;18.55;6.38;;;;;;;0.01;100.00;103421.50;4984203;28;20029;-58
2022/01/21 06:47:25;;;;;;;13.30;5.18;;;;;;;0.07;100.00;103427.34;4985026;28;20030;-58
2022/01/21 06:49:51;;;;;;;14.57;4.55;;;;;;;0.10;100.00;103428.97;4983867;28;20457;-58
2022/01/21 06:52:16;;;;;;;14.13;6.10;;;;;;;0.11;100.00;103422.63;4981965;28;20530;-58
2022/01/21 06:54:41;;;;;;;17.08;5.55;;;;;;;0.12;100.00;103422.53;4984772;28;20026;-58
2022/01/21 06:57:07;;;;;;;16.60;5.07;;;;;;;0.17;100.00;103420.38;4984047;28;20031;-58
2022/01/21 06:59:32;;;;;;;14.45;4.43;;;;;;;0.24;100.00;103426.25;4984192;28;20037;-59
2022/01/21 07:01:57;;;;;;;15.82;4.32;;;;;;;0.28;100.00;103425.09;4981927;28;20077;-58
2022/01/21 07:04:22;;;;;;;13.75;4.60;;;;;;;0.32;100.00;103429.34;4984041;28;20029;-59
2022/01/21 07:06:48;;;;;;;16.00;5.60;;;;;;;0.37;100.00;103434.44;4983621;28;20117;-59
2022/01/21 07:09:13;;;;;;;15.30;7.75;;;;;;;0.40;100.00;103429.69;4983076;28;20038;-58
2022/01/21 07:11:39;;;;;;;19.17;7.82;;;;;;;0.46;100.00;103436.56;4979110;28;20066;-59
2022/01/21 07:14:04;;;;;;;16.48;6.97;;;;;;;0.49;100.00;103429.09;4984301;28;20633;-59
2022/01/21 07:16:29;;;;;;;15.88;5.47;;;;;;;0.54;100.00;103455.81;4984786;28;20031;-58
2022/01/21 07:18:55;;;;;;;15.82;4.78;;;;;;;0.57;100.00;103455.63;4978418;28;20065;-59
2022/01/21 07:21:20;;;;;;;15.52;5.40;;;;;;;0.60;100.00;103460.81;4979385;28;20858;-58
2022/01/21 07:23:45;;;;;;;14.60;5.38;;;;;;;0.63;100.00;103451.66;4984003;28;20041;-58
2022/01/21 07:26:12;;;;;;;17.40;5.78;;;;;;;0.66;100.00;103451.44;4982294;28;20109;-58
2022/01/21 07:28:37;;;;;;;15.70;6.32;;;;;;;0.69;100.00;103453.94;4982773;28;20532;-59
2022/01/21 07:31:03;;;;;;;19.05;6.50;;;;;;;0.70;100.00;103469.19;4979845;28;20041;-59
2022/01/21 07:33:28;;;;;;;16.42;7.00;;;;;;;0.70;100.00;103467.34;4984453;28;20023;-58
2022/01/21 07:35:54;;;;;;;14.77;6.90;;;;;;;0.69;100.00;103473.75;4983406;28;20033;-59
2022/01/21 07:38:19;;;;;;;15.80;6.78;;;;;;;0.72;100.00;103475.38;4983847;28;20026;-59
2022/01/21 07:40:45;;;;;;;13.70;6.70;;;;;;;0.74;100.00;103477.00;4981841;28;20370;-59
2022/01/21 07:43:10;;;;;;;18.05;7.05;;;;;;;0.76;100.00;103457.97;4983673;28;20456;-59
2022/01/21 07:45:36;;;;;;;17.77;6.25;;;;;;;0.78;100.00;103456.03;4984034;28;20180;-59
2022/01/21 07:48:01;;;;;;;16.35;6.70;;;;;;;0.79;100.00;103449.66;4983997;28;20373;-59
2022/01/21 07:50:26;;;;;;;19.05;6.60;;;;;;;0.76;100.00;103448.03;4975864;28;20026;-58
2022/01/21 07:52:51;;;;;;;13.32;6.53;;;;;;;0.76;100.00;103463.38;4979364;28;20022;-58
2022/01/21 07:55:17;;;;;;;18.10;8.30;;;;;;;0.75;100.00;103453.53;4983429;28;20027;-58
2022/01/21 07:57:42;;;;;;;12.85;6.85;;;;;;;0.77;100.00;103444.34;4986981;28;20823;-58
2022/01/21 08:00:08;;;;;;;17.15;6.78;;;;;;;0.81;100.00;103434.16;4986855;28;20052;-58
2022/01/21 08:02:34;;;;;;;18.85;8.23;;;;;;;0.94;100.00;103432.38;4987837;28;20489;-59
2022/01/21 08:05:02;;;;;;;19.35;7.90;;;;;;;1.09;100.00;103435.03;4975772;28;20034;-58
2022/01/21 08:07:28;;;;;;;17.20;7.25;;;;;;;1.29;100.00;103426.41;4979649;28;20050;-59
2022/01/21 08:09:53;;;;;;;14.95;6.68;;;;;;;1.48;100.00;103424.13;4986345;28;20149;-59
2022/01/21 08:12:19;;;;;;;16.23;6.95;;;;;;;1.64;99.81;103429.34;4976599;28;20394;-59
2022/01/21 08:14:45;;;;;;;13.15;6.05;;;;;;;1.87;98.88;103430.38;4979818;28;20027;-59
2022/01/21 08:17:11;;;;;;;19.05;6.20;;;;;;;2.12;98.24;103418.63;4981690;28;20029;-59
2022/01/21 08:19:36;;;;;;;16.10;6.03;;;;;;;2.37;96.53;103431.25;4981079;28;20026;-59
2022/01/21 08:22:02;;;;;;;14.40;5.88;;;;;;;2.53;95.75;103415.56;4982545;28;20038;-60
2022/01/21 08:24:27;;;;;;;12.52;5.43;;;;;;;2.72;94.70;103403.34;4980069;28;20385;-59
2022/01/21 08:26:53;;;;;;;11.70;5.22;;;;;;;2.85;92.99;103409.56;4973562;28;20031;-59
2022/01/21 08:29:19;;;;;;;13.40;7.65;;;;;;;2.85;92.87;103399.56;4981395;28;20496;-59
2022/01/21 08:31:45;;;;;;;16.17;6.60;;;;;;;2.98;91.58;103414.91;4970363;28;20034;-60
2022/01/21 08:34:10;;;;;;;18.65;5.55;;;;;;;2.94;91.93;103433.31;4982921;28;20045;-60
2022/01/21 08:36:35;;;;;;;11.52;5.28;;;;;;;3.28;90.88;103433.41;4978590;28;20346;-59
2022/01/21 08:39:01;;;;;;;14.93;5.43;;;;;;;3.57;89.49;103437.41;4975918;28;20174;-59
2022/01/21 08:41:26;;;;;;;15.85;4.90;;;;;;;3.65;88.52;103434.09;4979341;28;20350;-59
2022/01/21 08:43:51;;;;;;;15.93;5.18;;;;;;;3.81;88.33;103428.31;4981934;28;20041;-59
2022/01/21 08:46:17;;;;;;;12.45;5.47;;;;;;;3.99;86.82;103432.25;4979430;28;20057;-59
2022/01/21 08:48:44;;;;;;;14.32;4.15;;;;;;;3.91;86.14;103437.47;4984765;28;20038;-59
2022/01/21 08:51:12;;;;;;;12.95;4.00;;;;;;;3.73;86.76;103437.06;4981622;28;20065;-59
2022/01/21 08:53:38;;;;;;;11.63;4.07;;;;;;;3.85;86.25;103438.81;4973592;28;20070;-59
2022/01/21 08:56:16;;;;;;;15.35;3.90;;;;;;;3.80;86.01;103442.88;4982616;28;20289;-60
2022/01/21 08:58:42;;;;;;;14.05;4.38;;;;;;;3.51;86.54;103440.63;4980047;28;20366;-59
2022/01/21 09:01:12;;;;;;;11.63;4.18;;;;;;;3.35;87.39;103442.81;4977727;28;20039;-59
2022/01/21 09:03:39;;;;;;;12.85;4.25;;;;;;;3.33;87.76;103431.19;4980618;28;20045;-59
2022/01/21 09:06:04;;;;;;;12.43;4.30;;;;;;;3.35;87.72;103416.50;4981417;28;20089;-59
2022/01/21 09:08:30;;;;;;;16.00;4.88;;;;;;;3.50;87.95;103417.16;4979170;28;20124;-59
2022/01/21 09:10:58;;;;;;;11.88;5.15;;;;;;;3.58;87.11;103416.53;4975938;28;20097;-59
2022/01/21 09:13:26;;;;;;;14.00;4.88;;;;;;;3.60;87.94;103426.31;4978773;28;20026;-59
2022/01/21 09:15:52;;;;;;;15.07;5.00;;;;;;;3.92;87.33;103417.44;4982446;28;20100;-59
2022/01/21 09:18:19;;;;;;;9.98;4.88;;;;;;;4.61;86.37;103409.91;4989207;28;20033;-59
2022/01/21 09:20:46;;;;;;;13.63;4.57;;;;;;;5.89;81.79;103400.59;4982051;28;20034;-59
2022/01/21 09:23:11;;;;;;;13.77;4.53;;;;;;;7.42;75.72;103396.44;4973604;28;20027;-59
2022/01/21 09:25:37;;;;;;;11.00;3.55;;;;;;;8.44;71.57;103390.97;4979791;28;20034;-59
2022/01/21 09:28:03;;;;;;;10.07;3.55;;;;;;;8.98;68.58;103400.09;4984912;28;20088;-60
2022/01/21 09:30:28;;;;;;;12.68;4.13;;;;;;;9.41;66.93;103395.63;4977989;28;20068;-59
2022/01/21 09:32:54;;;;;;;13.48;5.28;;;;;;;9.85;65.58;103396.44;4979359;28;20033;-59
2022/01/21 09:35:19;;;;;;;12.55;4.78;;;;;;;10.21;63.64;103402.59;4979886;28;20041;-59
2022/01/21 09:37:45;;;;;;;12.18;4.22;;;;;;;10.49;62.35;103399.59;4978009;28;20362;-59
2022/01/21 09:40:11;;;;;;;10.95;3.63;;;;;;;10.76;60.92;103402.09;4984153;28;20042;-59
2022/01/21 09:42:37;;;;;;;14.15;4.07;;;;;;;10.69;60.61;103403.78;4980100;28;20114;-59
2022/01/21 09:45:09;;;;;;;13.80;4.80;;;;;;;10.50;61.68;103421.44;4985786;28;20026;-59
2022/01/21 09:47:44;;;;;;;9.70;4.30;;;;;;;10.48;60.97;103417.97;4986359;28;20026;-59
2022/01/21 09:50:11;;;;;;;12.55;4.43;;;;;;;10.49;60.31;103410.59;4978119;28;20034;-59
2022/01/21 09:52:37;;;;;;;16.23;4.60;;;;;;;10.49;60.62;103424.34;4980716;28;20087;-59
2022/01/21 09:55:04;;;;;;;12.60;3.95;;;;;;;10.37;61.00;103427.41;4986011;28;20057;-59
2022/01/21 09:57:29;;;;;;;14.63;4.82;;;;;;;10.72;60.06;103430.94;4985585;28;20033;-59
2022/01/21 09:59:55;;;;;;;9.88;3.58;;;;;;;11.07;59.54;103427.03;4979125;28;21892;-59
2022/01/21 10:02:26;;;;;;;11.57;4.72;;;;;;;11.43;57.94;103430.28;4981294;28;20537;-59
2022/01/21 10:04:52;;;;;;;13.25;4.43;;;;;;;11.67;57.02;103434.91;4979569;28;20019;-59
2022/01/21 10:07:19;;;;;;;15.85;5.97;;;;;;;12.24;55.42;103444.09;4983986;28;20057;-59
2022/01/21 10:09:46;;;;;;;12.80;5.00;;;;;;;12.75;54.69;103450.88;4972399;28;20041;-59
2022/01/21 10:12:13;;;;;;;16.15;7.13;;;;;;;13.70;51.36;103447.75;4974663;28;20037;-59
2022/01/21 10:14:40;;;;;;;15.57;5.63;;;;;;;14.38;49.50;103465.09;4979981;28;20085;-59
2022/01/21 10:17:05;;;;;;;16.65;7.65;;;;;;;14.56;47.36;103456.44;4979292;28;20034;-59
2022/01/21 10:19:35;;;;;;;18.77;6.30;;;;;;;14.26;49.97;103454.53;4975804;28;20500;-59
2022/01/21 10:22:10;;;;;;;15.13;5.38;;;;;;;13.86;49.17;103455.84;4984483;28;20038;-59
2022/01/21 10:24:57;;;;;;;10.93;2.92;;;;;;;14.19;52.42;103461.00;4985910;28;20031;-59
2022/01/21 10:27:28;;;;;;;14.82;4.55;;;;;;;14.38;48.84;103463.19;4985172;28;20038;-59
2022/01/21 10:29:53;;;;;;;12.98;3.30;;;;;;;15.00;47.71;103465.50;4984564;28;20034;-59
2022/01/21 10:32:38;;;;;;;11.15;2.80;;;;;;;15.70;49.36;103465.72;4980844;28;20033;-59
2022/01/21 10:35:17;;;;;;;12.95;2.65;;;;;;;14.16;47.76;103456.72;4985295;28;20023;-60
2022/01/21 10:37:42;;;;;;;14.13;3.85;;;;;;;12.53;51.66;103471.88;4984930;28;20081;-59
2022/01/21 10:40:10;;;;;;;9.85;2.75;;;;;;;10.94;55.83;103475.31;4985182;28;20644;-59
2022/01/21 10:42:36;;;;;;;11.02;2.80;;;;;;;9.83;59.35;103476.19;4984180;28;20088;-60
2022/01/21 10:45:04;;;;;;;18.80;6.88;;;;;;;8.96;62.73;103476.13;4985186;28;20126;-60
2022/01/21 10:47:32;;;;;;;13.57;3.42;;;;;;;8.64;65.27;103488.44;4985446;28;20084;-59
2022/01/21 10:50:07;;;;;;;;;;;;;;;9.14;65.76;103479.75;4986525;28;20033;-59
2022/01/21 10:52:35;;;;;;;13.63;3.67;;;;;;;8.65;65.67;103478.34;4980511;28;19964;-60
2022/01/21 10:55:00;;;;;;;14.45;4.95;;;;;;;8.24;67.27;103469.59;4983789;28;20030;-59
2022/01/21 10:57:28;;;;;;;14.90;3.97;;;;;;;7.77;69.58;103477.84;4983874;28;20049;-59
2022/01/21 10:59:56;;;;;;;14.57;4.30;;;;;;;7.35;72.25;103463.63;4984986;28;20101;-59
2022/01/21 11:02:34;;;;;;;15.68;3.08;;;;;;;6.92;74.43;103464.94;4983341;28;20260;-59
2022/01/21 11:05:14;;;;;;;11.18;3.83;;;;;;;6.61;75.90;103472.38;4985848;28;20880;-59
2022/01/21 11:07:57;;;;;;;16.83;3.83;;;;;;;6.47;77.19;103459.97;4982741;28;20030;-60
2022/01/21 11:10:32;;;;;;;15.60;3.28;;;;;;;6.44;78.40;103452.94;4979617;28;20142;-59
2022/01/21 11:13:02;;;;;;;12.52;3.55;;;;;;;6.69;78.66;103446.09;4983491;28;20044;-59
2022/01/21 11:15:37;;;;;;;12.35;3.22;;;;;;;7.25;77.80;103445.41;4984047;28;20061;-59
2022/01/21 11:18:03;;;;;;;11.57;3.38;;;;;;;7.54;76.28;103441.75;4998345;28;20489;-60
2022/01/21 11:20:37;;;;;;;13.80;3.30;;;;;;;7.62;75.44;103435.56;4982862;28;20028;-60
2022/01/21 11:23:02;;;;;;;16.08;4.10;;;;;;;7.38;74.72;103423.22;4982370;28;20125;-60
2022/01/21 11:25:49;;;;;;;12.85;3.30;;;;;;;7.17;76.63;103420.66;4988355;28;20116;-60
2022/01/21 11:28:19;;;;;;;13.35;4.03;;;;;;;6.87;77.85;103418.06;4983988;28;20048;-60
2022/01/21 11:30:45;;;;;;;15.40;3.80;;;;;;;6.63;78.66;103415.75;4973463;28;20169;-60
2022/01/21 11:33:11;;;;;;;17.20;6.00;;;;;;;6.47;79.47;103408.97;4976733;28;20097;-60
2022/01/21 11:35:37;;;;;;;19.77;5.85;;;;;;;6.40;80.39;103426.06;4976610;28;20136;-60
2022/01/21 11:38:07;;;;;;;18.90;6.05;;;;;;;6.34;80.68;103426.63;4984052;28;20111;-61
2022/01/21 11:40:34;;;;;;;18.45;5.97;;;;;;;6.20;81.39;103428.72;4985138;28;20038;-60
2022/01/21 11:43:01;;;;;;;18.23;4.13;;;;;;;6.12;81.63;103433.16;5003950;28;20026;-60
2022/01/21 11:50:42;;;;;;;15.70;5.00;;;;;;;6.13;82.48;103415.75;4983031;28;20035;-60
2022/01/21 11:53:08;;;;;;;15.73;4.10;;;;;;;6.14;82.75;103415.66;4982500;28;20038;-60
2022/01/21 11:55:46;;;;;;;16.70;4.07;;;;;;;6.19;82.75;103410.63;5003090;28;20038;-60
2022/01/21 11:58:14;;;;;;;13.68;4.10;;;;;;;6.28;83.00;103413.53;4978383;28;20477;-60
2022/01/21 12:00:41;;;;;;;17.35;3.97;;;;;;;6.36;81.67;103400.91;4983430;28;20073;-60
2022/01/21 12:03:07;;;;;;;14.57;3.90;;;;;;;6.34;82.42;103404.78;4999274;28;20190;-60
2022/01/21 12:05:35;;;;;;;19.20;3.75;;;;;;;6.29;82.19;103391.56;4986939;28;20022;-60
2022/01/21 12:08:05;;;;;;;15.85;4.15;;;;;;;6.25;82.57;103401.03;4971212;28;20042;-60
2022/01/21 12:10:33;;;;;;;18.00;5.45;;;;;;;6.18;82.99;103400.72;4963275;28;20025;-59
2022/01/21 12:15:41;;;;;;;15.63;4.15;;;;;;;6.06;82.90;103392.78;4971554;28;20405;-60